sensor_id;sensor_type;location;lat;lon;timestamp;P1;durP1;ratioP1;P2;durP2;ratioP2
5022;SDS011;2530;47.990;7.866;2023-04-24T00:01:11;2.40;;;1.00;;
5022;SDS011;2530;47.990;7.866;2023-04-24T00:03:37;1.25;;;0.65;;
5022;SDS011;2530;47.990;7.866;2023-04-24T00:06:03;1.70;;;0.80;;
5022;SDS011;2530;47.990;7.866;2023-04-24T00:08:31;1.23;;;0.70;;
5022;SDS011;2530;47.990;7.866;2023-04-24T00:10:57;1.67;;;0.40;;
5022;SDS011;2530;47.990;7.866;2023-04-24T00:13:23;1.40;;;0.60;;
5022;SDS011;2530;47.990;7.866;2023-04-24T00:15:48;0.80;;;0.60;;
5022;SDS011;2530;47.990;7.866;2023-04-24T00:18:14;1.10;;;0.50;;
5022;SDS011;2530;47.990;7.866;2023-04-24T00:20:40;0.88;;;0.45;;
5022;SDS011;2530;47.990;7.866;2023-04-24T00:23:05;0.80;;;0.70;;
5022;SDS011;2530;47.990;7.866;2023-04-24T00:25:31;2.03;;;0.60;;
5022;SDS011;2530;47.990;7.866;2023-04-24T00:27:56;0.70;;;0.60;;
5022;SDS011;2530;47.990;7.866;2023-04-24T00:30:22;0.90;;;0.50;;
5022;SDS011;2530;47.990;7.866;2023-04-24T00:32:47;1.20;;;0.50;;
5022;SDS011;2530;47.990;7.866;2023-04-24T00:35:13;0.83;;;0.57;;
5022;SDS011;2530;47.990;7.866;2023-04-24T00:37:39;0.50;;;0.50;;
5022;SDS011;2530;47.990;7.866;2023-04-24T00:40:05;0.97;;;0.50;;
5022;SDS011;2530;47.990;7.866;2023-04-24T00:42:31;1.35;;;0.50;;
5022;SDS011;2530;47.990;7.866;2023-04-24T00:44:57;0.70;;;0.40;;
5022;SDS011;2530;47.990;7.866;2023-04-24T00:47:24;1.30;;;0.60;;
5022;SDS011;2530;47.990;7.866;2023-04-24T00:49:50;0.70;;;0.60;;
5022;SDS011;2530;47.990;7.866;2023-04-24T00:52:16;0.60;;;0.50;;
5022;SDS011;2530;47.990;7.866;2023-04-24T00:54:43;0.70;;;0.50;;
5022;SDS011;2530;47.990;7.866;2023-04-24T00:57:10;2.28;;;0.60;;
5022;SDS011;2530;47.990;7.866;2023-04-24T00:59:35;0.60;;;0.40;;
5022;SDS011;2530;47.990;7.866;2023-04-24T01:02:02;1.50;;;0.60;;
5022;SDS011;2530;47.990;7.866;2023-04-24T01:04:28;0.70;;;0.50;;
5022;SDS011;2530;47.990;7.866;2023-04-24T01:06:54;1.00;;;0.50;;
5022;SDS011;2530;47.990;7.866;2023-04-24T01:09:21;1.50;;;0.57;;
5022;SDS011;2530;47.990;7.866;2023-04-24T01:11:48;1.15;;;0.50;;
5022;SDS011;2530;47.990;7.866;2023-04-24T01:14:14;0.70;;;0.50;;
5022;SDS011;2530;47.990;7.866;2023-04-24T01:16:40;0.80;;;0.60;;
5022;SDS011;2530;47.990;7.866;2023-04-24T01:19:06;0.77;;;0.50;;
5022;SDS011;2530;47.990;7.866;2023-04-24T01:21:34;0.90;;;0.40;;
5022;SDS011;2530;47.990;7.866;2023-04-24T01:24:02;1.10;;;0.50;;
5022;SDS011;2530;47.990;7.866;2023-04-24T01:26:31;2.35;;;0.50;;
5022;SDS011;2530;47.990;7.866;2023-04-24T01:28:57;0.90;;;0.50;;
5022;SDS011;2530;47.990;7.866;2023-04-24T01:31:22;1.00;;;0.50;;
5022;SDS011;2530;47.990;7.866;2023-04-24T01:33:49;0.63;;;0.50;;
5022;SDS011;2530;47.990;7.866;2023-04-24T01:36:14;1.50;;;0.43;;
5022;SDS011;2530;47.990;7.866;2023-04-24T01:38:41;1.00;;;0.50;;
5022;SDS011;2530;47.990;7.866;2023-04-24T01:41:07;1.50;;;0.50;;
5022;SDS011;2530;47.990;7.866;2023-04-24T01:43:32;1.20;;;0.60;;
5022;SDS011;2530;47.990;7.866;2023-04-24T01:45:58;0.80;;;0.50;;
5022;SDS011;2530;47.990;7.866;2023-04-24T01:48:24;2.07;;;0.70;;
5022;SDS011;2530;47.990;7.866;2023-04-24T01:50:49;0.80;;;0.50;;
5022;SDS011;2530;47.990;7.866;2023-04-24T01:53:15;1.90;;;0.60;;
5022;SDS011;2530;47.990;7.866;2023-04-24T01:55:40;1.55;;;0.70;;
5022;SDS011;2530;47.990;7.866;2023-04-24T01:58:06;0.80;;;0.60;;
5022;SDS011;2530;47.990;7.866;2023-04-24T02:00:32;1.20;;;0.67;;
5022;SDS011;2530;47.990;7.866;2023-04-24T02:02:57;1.50;;;0.70;;
5022;SDS011;2530;47.990;7.866;2023-04-24T02:05:23;1.50;;;0.70;;
5022;SDS011;2530;47.990;7.866;2023-04-24T02:07:48;1.10;;;0.60;;
5022;SDS011;2530;47.990;7.866;2023-04-24T02:10:14;0.73;;;0.60;;
5022;SDS011;2530;47.990;7.866;2023-04-24T02:12:39;2.00;;;0.60;;
5022;SDS011;2530;47.990;7.866;2023-04-24T02:15:05;0.90;;;0.60;;
5022;SDS011;2530;47.990;7.866;2023-04-24T02:17:31;2.22;;;0.70;;
5022;SDS011;2530;47.990;7.866;2023-04-24T02:19:56;1.25;;;0.75;;
5022;SDS011;2530;47.990;7.866;2023-04-24T02:22:22;1.08;;;0.73;;
5022;SDS011;2530;47.990;7.866;2023-04-24T02:24:47;1.63;;;0.60;;
5022;SDS011;2530;47.990;7.866;2023-04-24T02:27:13;2.40;;;1.00;;
5022;SDS011;2530;47.990;7.866;2023-04-24T02:29:39;2.17;;;0.60;;
5022;SDS011;2530;47.990;7.866;2023-04-24T02:32:05;2.60;;;0.70;;
5022;SDS011;2530;47.990;7.866;2023-04-24T02:34:30;1.45;;;0.60;;
5022;SDS011;2530;47.990;7.866;2023-04-24T02:36:56;1.40;;;0.70;;
5022;SDS011;2530;47.990;7.866;2023-04-24T02:39:21;1.40;;;0.80;;
5022;SDS011;2530;47.990;7.866;2023-04-24T02:41:47;1.10;;;0.57;;
5022;SDS011;2530;47.990;7.866;2023-04-24T02:44:12;1.60;;;0.70;;
5022;SDS011;2530;47.990;7.866;2023-04-24T02:46:38;2.40;;;0.70;;
5022;SDS011;2530;47.990;7.866;2023-04-24T02:49:06;0.80;;;0.70;;
5022;SDS011;2530;47.990;7.866;2023-04-24T02:51:31;1.37;;;0.70;;
5022;SDS011;2530;47.990;7.866;2023-04-24T02:53:57;1.43;;;0.70;;
5022;SDS011;2530;47.990;7.866;2023-04-24T02:56:22;1.55;;;0.60;;
5022;SDS011;2530;47.990;7.866;2023-04-24T02:58:48;1.80;;;1.00;;
5022;SDS011;2530;47.990;7.866;2023-04-24T03:01:13;1.20;;;0.50;;
5022;SDS011;2530;47.990;7.866;2023-04-24T03:03:39;1.20;;;0.80;;
5022;SDS011;2530;47.990;7.866;2023-04-24T03:06:05;1.00;;;0.70;;
5022;SDS011;2530;47.990;7.866;2023-04-24T03:08:32;1.90;;;1.10;;
5022;SDS011;2530;47.990;7.866;2023-04-24T03:10:58;2.40;;;0.60;;
5022;SDS011;2530;47.990;7.866;2023-04-24T03:13:24;1.00;;;0.67;;
5022;SDS011;2530;47.990;7.866;2023-04-24T03:15:49;3.47;;;0.80;;
5022;SDS011;2530;47.990;7.866;2023-04-24T03:18:15;1.42;;;0.65;;
5022;SDS011;2530;47.990;7.866;2023-04-24T03:20:40;2.40;;;0.70;;
5022;SDS011;2530;47.990;7.866;2023-04-24T03:23:06;2.17;;;0.80;;
5022;SDS011;2530;47.990;7.866;2023-04-24T03:25:31;0.80;;;0.60;;
5022;SDS011;2530;47.990;7.866;2023-04-24T03:27:57;2.30;;;1.10;;
5022;SDS011;2530;47.990;7.866;2023-04-24T03:30:22;1.87;;;0.77;;
5022;SDS011;2530;47.990;7.866;2023-04-24T03:32:48;2.40;;;0.70;;
5022;SDS011;2530;47.990;7.866;2023-04-24T03:35:13;1.65;;;0.80;;
5022;SDS011;2530;47.990;7.866;2023-04-24T03:37:39;1.42;;;0.70;;
5022;SDS011;2530;47.990;7.866;2023-04-24T03:40:04;2.00;;;0.70;;
5022;SDS011;2530;47.990;7.866;2023-04-24T03:42:31;0.60;;;0.60;;
5022;SDS011;2530;47.990;7.866;2023-04-24T03:44:57;0.82;;;0.70;;
5022;SDS011;2530;47.990;7.866;2023-04-24T03:47:22;1.73;;;0.80;;
5022;SDS011;2530;47.990;7.866;2023-04-24T03:49:48;1.90;;;0.70;;
5022;SDS011;2530;47.990;7.866;2023-04-24T03:52:14;1.40;;;0.60;;
5022;SDS011;2530;47.990;7.866;2023-04-24T03:54:39;1.00;;;0.60;;
5022;SDS011;2530;47.990;7.866;2023-04-24T03:57:05;2.40;;;0.70;;
5022;SDS011;2530;47.990;7.866;2023-04-24T03:59:30;0.70;;;0.40;;
5022;SDS011;2530;47.990;7.866;2023-04-24T04:01:56;2.17;;;0.75;;
5022;SDS011;2530;47.990;7.866;2023-04-24T04:04:21;1.10;;;0.77;;
5022;SDS011;2530;47.990;7.866;2023-04-24T04:06:47;1.10;;;0.80;;
5022;SDS011;2530;47.990;7.866;2023-04-24T04:09:13;1.50;;;0.90;;
5022;SDS011;2530;47.990;7.866;2023-04-24T04:11:38;3.30;;;1.10;;
5022;SDS011;2530;47.990;7.866;2023-04-24T04:14:04;2.28;;;1.13;;
5022;SDS011;2530;47.990;7.866;2023-04-24T04:16:30;2.03;;;1.10;;
5022;SDS011;2530;47.990;7.866;2023-04-24T04:18:55;2.10;;;1.08;;
5022;SDS011;2530;47.990;7.866;2023-04-24T04:21:21;2.40;;;1.10;;
5022;SDS011;2530;47.990;7.866;2023-04-24T04:23:46;1.10;;;1.00;;
5022;SDS011;2530;47.990;7.866;2023-04-24T04:26:13;0.80;;;0.80;;
5022;SDS011;2530;47.990;7.866;2023-04-24T04:28:38;2.70;;;1.10;;
5022;SDS011;2530;47.990;7.866;2023-04-24T04:31:04;2.20;;;0.87;;
5022;SDS011;2530;47.990;7.866;2023-04-24T04:33:30;1.70;;;0.90;;
5022;SDS011;2530;47.990;7.866;2023-04-24T04:35:56;1.63;;;0.80;;
5022;SDS011;2530;47.990;7.866;2023-04-24T04:38:23;1.90;;;0.85;;
5022;SDS011;2530;47.990;7.866;2023-04-24T04:40:49;2.40;;;1.10;;
5022;SDS011;2530;47.990;7.866;2023-04-24T04:43:15;1.10;;;0.90;;
5022;SDS011;2530;47.990;7.866;2023-04-24T04:45:40;1.90;;;1.00;;
5022;SDS011;2530;47.990;7.866;2023-04-24T04:48:07;1.13;;;1.02;;
5022;SDS011;2530;47.990;7.866;2023-04-24T04:50:34;1.30;;;1.00;;
5022;SDS011;2530;47.990;7.866;2023-04-24T04:53:02;1.90;;;1.00;;
5022;SDS011;2530;47.990;7.866;2023-04-24T04:55:27;2.93;;;1.20;;
5022;SDS011;2530;47.990;7.866;2023-04-24T04:57:53;2.45;;;1.35;;
5022;SDS011;2530;47.990;7.866;2023-04-24T05:00:20;2.30;;;1.10;;
5022;SDS011;2530;47.990;7.866;2023-04-24T05:02:46;1.73;;;1.40;;
5022;SDS011;2530;47.990;7.866;2023-04-24T05:05:11;1.17;;;1.08;;
5022;SDS011;2530;47.990;7.866;2023-04-24T05:07:38;1.52;;;1.00;;
5022;SDS011;2530;47.990;7.866;2023-04-24T05:10:03;1.20;;;1.10;;
5022;SDS011;2530;47.990;7.866;2023-04-24T05:12:29;2.30;;;1.30;;
5022;SDS011;2530;47.990;7.866;2023-04-24T05:14:55;1.80;;;1.20;;
5022;SDS011;2530;47.990;7.866;2023-04-24T05:17:20;1.90;;;1.10;;
5022;SDS011;2530;47.990;7.866;2023-04-24T05:19:46;4.45;;;1.40;;
5022;SDS011;2530;47.990;7.866;2023-04-24T05:22:11;2.60;;;1.20;;
5022;SDS011;2530;47.990;7.866;2023-04-24T05:24:37;1.30;;;1.20;;
5022;SDS011;2530;47.990;7.866;2023-04-24T05:27:03;1.20;;;1.10;;
5022;SDS011;2530;47.990;7.866;2023-04-24T05:29:29;2.05;;;1.60;;
5022;SDS011;2530;47.990;7.866;2023-04-24T05:31:58;1.70;;;1.35;;
5022;SDS011;2530;47.990;7.866;2023-04-24T05:34:25;3.28;;;1.50;;
5022;SDS011;2530;47.990;7.866;2023-04-24T05:36:50;1.60;;;1.50;;
5022;SDS011;2530;47.990;7.866;2023-04-24T05:39:16;5.10;;;1.70;;
5022;SDS011;2530;47.990;7.866;2023-04-24T05:41:42;2.22;;;1.80;;
5022;SDS011;2530;47.990;7.866;2023-04-24T05:44:08;3.78;;;1.83;;
5022;SDS011;2530;47.990;7.866;2023-04-24T05:46:34;1.80;;;1.42;;
5022;SDS011;2530;47.990;7.866;2023-04-24T05:49:00;2.70;;;1.70;;
5022;SDS011;2530;47.990;7.866;2023-04-24T05:51:25;1.92;;;1.65;;
5022;SDS011;2530;47.990;7.866;2023-04-24T05:53:51;2.40;;;1.80;;
5022;SDS011;2530;47.990;7.866;2023-04-24T05:56:17;2.42;;;2.22;;
5022;SDS011;2530;47.990;7.866;2023-04-24T05:58:43;2.20;;;2.00;;
5022;SDS011;2530;47.990;7.866;2023-04-24T06:01:11;2.00;;;1.80;;
5022;SDS011;2530;47.990;7.866;2023-04-24T06:03:37;2.13;;;1.80;;
5022;SDS011;2530;47.990;7.866;2023-04-24T06:06:04;2.08;;;1.88;;
5022;SDS011;2530;47.990;7.866;2023-04-24T06:08:30;3.00;;;2.00;;
5022;SDS011;2530;47.990;7.866;2023-04-24T06:10:56;2.20;;;2.10;;
5022;SDS011;2530;47.990;7.866;2023-04-24T06:13:22;1.70;;;1.60;;
5022;SDS011;2530;47.990;7.866;2023-04-24T06:15:47;2.27;;;1.83;;
5022;SDS011;2530;47.990;7.866;2023-04-24T06:18:13;2.10;;;1.90;;
5022;SDS011;2530;47.990;7.866;2023-04-24T06:20:38;2.20;;;2.00;;
5022;SDS011;2530;47.990;7.866;2023-04-24T06:23:04;4.55;;;2.10;;
5022;SDS011;2530;47.990;7.866;2023-04-24T06:25:30;2.00;;;1.80;;
5022;SDS011;2530;47.990;7.866;2023-04-24T06:27:56;2.35;;;1.70;;
5022;SDS011;2530;47.990;7.866;2023-04-24T06:30:22;1.67;;;1.57;;
5022;SDS011;2530;47.990;7.866;2023-04-24T06:32:48;2.20;;;1.80;;
5022;SDS011;2530;47.990;7.866;2023-04-24T06:35:13;2.20;;;2.00;;
5022;SDS011;2530;47.990;7.866;2023-04-24T06:37:39;3.10;;;2.10;;
5022;SDS011;2530;47.990;7.866;2023-04-24T06:40:06;2.38;;;2.17;;
5022;SDS011;2530;47.990;7.866;2023-04-24T06:42:32;2.15;;;1.98;;
5022;SDS011;2530;47.990;7.866;2023-04-24T06:44:57;2.60;;;1.90;;
5022;SDS011;2530;47.990;7.866;2023-04-24T06:47:23;2.40;;;2.20;;
5022;SDS011;2530;47.990;7.866;2023-04-24T06:49:49;2.10;;;1.90;;
5022;SDS011;2530;47.990;7.866;2023-04-24T06:52:15;2.30;;;2.10;;
5022;SDS011;2530;47.990;7.866;2023-04-24T06:54:41;2.42;;;1.90;;
5022;SDS011;2530;47.990;7.866;2023-04-24T06:57:07;1.90;;;1.80;;
5022;SDS011;2530;47.990;7.866;2023-04-24T06:59:33;2.00;;;1.80;;
5022;SDS011;2530;47.990;7.866;2023-04-24T07:01:59;2.70;;;2.10;;
5022;SDS011;2530;47.990;7.866;2023-04-24T07:04:25;2.50;;;1.70;;
5022;SDS011;2530;47.990;7.866;2023-04-24T07:06:50;1.90;;;1.80;;
5022;SDS011;2530;47.990;7.866;2023-04-24T07:09:16;1.70;;;1.60;;
5022;SDS011;2530;47.990;7.866;2023-04-24T07:11:43;3.00;;;2.30;;
5022;SDS011;2530;47.990;7.866;2023-04-24T07:14:09;1.95;;;1.48;;
5022;SDS011;2530;47.990;7.866;2023-04-24T07:16:35;4.80;;;2.20;;
5022;SDS011;2530;47.990;7.866;2023-04-24T07:19:00;3.53;;;1.70;;
5022;SDS011;2530;47.990;7.866;2023-04-24T07:21:26;1.90;;;1.80;;
5022;SDS011;2530;47.990;7.866;2023-04-24T07:23:52;2.70;;;1.90;;
5022;SDS011;2530;47.990;7.866;2023-04-24T07:26:17;2.53;;;1.60;;
5022;SDS011;2530;47.990;7.866;2023-04-24T07:28:43;2.80;;;1.60;;
5022;SDS011;2530;47.990;7.866;2023-04-24T07:31:09;2.72;;;2.13;;
5022;SDS011;2530;47.990;7.866;2023-04-24T07:33:35;2.20;;;1.60;;
5022;SDS011;2530;47.990;7.866;2023-04-24T07:36:01;2.22;;;1.80;;
5022;SDS011;2530;47.990;7.866;2023-04-24T07:38:29;1.60;;;1.50;;
5022;SDS011;2530;47.990;7.866;2023-04-24T07:40:54;3.60;;;3.30;;
5022;SDS011;2530;47.990;7.866;2023-04-24T07:43:20;4.18;;;2.75;;
5022;SDS011;2530;47.990;7.866;2023-04-24T07:45:46;2.58;;;2.30;;
5022;SDS011;2530;47.990;7.866;2023-04-24T07:48:12;4.15;;;1.60;;
5022;SDS011;2530;47.990;7.866;2023-04-24T07:50:41;3.83;;;2.05;;
5022;SDS011;2530;47.990;7.866;2023-04-24T07:53:07;3.08;;;1.50;;
5022;SDS011;2530;47.990;7.866;2023-04-24T07:55:32;2.20;;;1.80;;
5022;SDS011;2530;47.990;7.866;2023-04-24T07:57:58;2.87;;;1.57;;
5022;SDS011;2530;47.990;7.866;2023-04-24T08:00:23;2.37;;;1.70;;
5022;SDS011;2530;47.990;7.866;2023-04-24T08:02:49;3.33;;;2.10;;
5022;SDS011;2530;47.990;7.866;2023-04-24T08:05:15;2.83;;;1.60;;
5022;SDS011;2530;47.990;7.866;2023-04-24T08:07:40;3.45;;;2.58;;
5022;SDS011;2530;47.990;7.866;2023-04-24T08:10:07;2.78;;;2.30;;
5022;SDS011;2530;47.990;7.866;2023-04-24T08:12:35;4.47;;;2.50;;
5022;SDS011;2530;47.990;7.866;2023-04-24T08:15:00;3.45;;;2.10;;
5022;SDS011;2530;47.990;7.866;2023-04-24T08:17:26;2.77;;;2.00;;
5022;SDS011;2530;47.990;7.866;2023-04-24T08:19:51;4.50;;;1.97;;
5022;SDS011;2530;47.990;7.866;2023-04-24T08:22:23;2.55;;;1.85;;
5022;SDS011;2530;47.990;7.866;2023-04-24T08:24:49;2.40;;;2.17;;
5022;SDS011;2530;47.990;7.866;2023-04-24T08:27:14;2.58;;;2.38;;
5022;SDS011;2530;47.990;7.866;2023-04-24T08:29:40;2.50;;;2.00;;
5022;SDS011;2530;47.990;7.866;2023-04-24T08:32:05;4.10;;;2.10;;
5022;SDS011;2530;47.990;7.866;2023-04-24T08:34:31;3.70;;;1.95;;
5022;SDS011;2530;47.990;7.866;2023-04-24T08:36:56;2.70;;;2.10;;
5022;SDS011;2530;47.990;7.866;2023-04-24T08:39:22;3.20;;;2.20;;
5022;SDS011;2530;47.990;7.866;2023-04-24T08:41:48;2.30;;;1.87;;
5022;SDS011;2530;47.990;7.866;2023-04-24T08:44:13;2.50;;;1.83;;
5022;SDS011;2530;47.990;7.866;2023-04-24T08:46:41;1.90;;;1.70;;
5022;SDS011;2530;47.990;7.866;2023-04-24T08:49:09;3.40;;;1.90;;
5022;SDS011;2530;47.990;7.866;2023-04-24T08:51:35;1.50;;;1.40;;
5022;SDS011;2530;47.990;7.866;2023-04-24T08:54:02;2.00;;;1.70;;
5022;SDS011;2530;47.990;7.866;2023-04-24T08:56:29;1.80;;;1.70;;
5022;SDS011;2530;47.990;7.866;2023-04-24T08:58:55;1.30;;;1.20;;
5022;SDS011;2530;47.990;7.866;2023-04-24T09:01:21;1.77;;;1.30;;
5022;SDS011;2530;47.990;7.866;2023-04-24T09:03:49;2.90;;;1.40;;
5022;SDS011;2530;47.990;7.866;2023-04-24T09:06:17;2.60;;;1.50;;
5022;SDS011;2530;47.990;7.866;2023-04-24T09:08:44;3.40;;;1.30;;
5022;SDS011;2530;47.990;7.866;2023-04-24T09:11:12;1.40;;;1.30;;
5022;SDS011;2530;47.990;7.866;2023-04-24T09:13:37;1.50;;;1.40;;
5022;SDS011;2530;47.990;7.866;2023-04-24T09:16:03;2.70;;;1.40;;
5022;SDS011;2530;47.990;7.866;2023-04-24T09:18:29;1.30;;;1.20;;
5022;SDS011;2530;47.990;7.866;2023-04-24T09:21:02;2.00;;;1.25;;
5022;SDS011;2530;47.990;7.866;2023-04-24T09:23:30;1.85;;;1.20;;
5022;SDS011;2530;47.990;7.866;2023-04-24T09:25:56;1.92;;;1.30;;
5022;SDS011;2530;47.990;7.866;2023-04-24T09:28:30;2.47;;;1.60;;
5022;SDS011;2530;47.990;7.866;2023-04-24T09:31:04;1.40;;;1.30;;
5022;SDS011;2530;47.990;7.866;2023-04-24T09:33:35;2.35;;;1.52;;
5022;SDS011;2530;47.990;7.866;2023-04-24T09:36:01;2.30;;;1.30;;
5022;SDS011;2530;47.990;7.866;2023-04-24T09:38:37;1.55;;;1.10;;
5022;SDS011;2530;47.990;7.866;2023-04-24T09:41:07;1.20;;;1.10;;
5022;SDS011;2530;47.990;7.866;2023-04-24T09:43:33;2.00;;;1.25;;
5022;SDS011;2530;47.990;7.866;2023-04-24T09:46:04;2.00;;;1.27;;
5022;SDS011;2530;47.990;7.866;2023-04-24T09:48:32;2.90;;;1.30;;
5022;SDS011;2530;47.990;7.866;2023-04-24T09:51:00;1.83;;;1.20;;
5022;SDS011;2530;47.990;7.866;2023-04-24T09:53:27;1.42;;;1.33;;
5022;SDS011;2530;47.990;7.866;2023-04-24T09:55:53;1.60;;;1.40;;
5022;SDS011;2530;47.990;7.866;2023-04-24T09:58:24;2.30;;;1.20;;
5022;SDS011;2530;47.990;7.866;2023-04-24T10:00:53;2.60;;;1.00;;
5022;SDS011;2530;47.990;7.866;2023-04-24T10:03:19;1.43;;;1.00;;
5022;SDS011;2530;47.990;7.866;2023-04-24T10:05:45;1.27;;;1.00;;
5022;SDS011;2530;47.990;7.866;2023-04-24T10:08:12;1.40;;;1.17;;
5022;SDS011;2530;47.990;7.866;2023-04-24T10:10:42;2.40;;;1.17;;
5022;SDS011;2530;47.990;7.866;2023-04-24T10:13:09;0.90;;;0.80;;
5022;SDS011;2530;47.990;7.866;2023-04-24T10:15:36;2.90;;;1.30;;
5022;SDS011;2530;47.990;7.866;2023-04-24T10:18:02;1.67;;;0.90;;
5022;SDS011;2530;47.990;7.866;2023-04-24T10:20:31;1.33;;;1.20;;
5022;SDS011;2530;47.990;7.866;2023-04-24T10:22:57;1.20;;;0.80;;
5022;SDS011;2530;47.990;7.866;2023-04-24T10:25:25;2.10;;;0.90;;
5022;SDS011;2530;47.990;7.866;2023-04-24T10:27:54;2.83;;;1.10;;
5022;SDS011;2530;47.990;7.866;2023-04-24T10:30:23;3.38;;;1.00;;
5022;SDS011;2530;47.990;7.866;2023-04-24T10:32:49;1.70;;;0.80;;
5022;SDS011;2530;47.990;7.866;2023-04-24T10:35:15;2.50;;;0.90;;
5022;SDS011;2530;47.990;7.866;2023-04-24T10:37:50;1.17;;;0.90;;
5022;SDS011;2530;47.990;7.866;2023-04-24T10:40:36;1.00;;;0.90;;
5022;SDS011;2530;47.990;7.866;2023-04-24T10:43:02;1.73;;;1.63;;
5022;SDS011;2530;47.990;7.866;2023-04-24T10:45:31;1.50;;;1.20;;
5022;SDS011;2530;47.990;7.866;2023-04-24T10:48:06;1.15;;;1.05;;
5022;SDS011;2530;47.990;7.866;2023-04-24T10:50:47;2.97;;;1.40;;
5022;SDS011;2530;47.990;7.866;2023-04-24T10:53:17;1.60;;;1.00;;
5022;SDS011;2530;47.990;7.866;2023-04-24T10:55:45;2.30;;;0.90;;
5022;SDS011;2530;47.990;7.866;2023-04-24T10:58:12;1.70;;;1.00;;
5022;SDS011;2530;47.990;7.866;2023-04-24T11:00:38;1.80;;;1.03;;
5022;SDS011;2530;47.990;7.866;2023-04-24T11:03:06;2.10;;;1.30;;
5022;SDS011;2530;47.990;7.866;2023-04-24T11:05:59;3.28;;;1.48;;
5022;SDS011;2530;47.990;7.866;2023-04-24T11:08:38;2.00;;;1.20;;
5022;SDS011;2530;47.990;7.866;2023-04-24T11:11:14;2.90;;;1.15;;
5022;SDS011;2530;47.990;7.866;2023-04-24T11:16:20;1.70;;;1.00;;
5022;SDS011;2530;47.990;7.866;2023-04-24T11:18:51;2.20;;;1.20;;
5022;SDS011;2530;47.990;7.866;2023-04-24T11:21:19;1.30;;;1.20;;
5022;SDS011;2530;47.990;7.866;2023-04-24T11:23:45;2.20;;;1.20;;
5022;SDS011;2530;47.990;7.866;2023-04-24T11:26:18;2.22;;;1.40;;
5022;SDS011;2530;47.990;7.866;2023-04-24T11:28:49;1.77;;;1.30;;
5022;SDS011;2530;47.990;7.866;2023-04-24T11:31:34;2.28;;;1.38;;
5022;SDS011;2530;47.990;7.866;2023-04-24T11:34:07;2.25;;;1.30;;
5022;SDS011;2530;47.990;7.866;2023-04-24T11:36:37;3.60;;;1.40;;
5022;SDS011;2530;47.990;7.866;2023-04-24T11:39:02;1.27;;;1.17;;
5022;SDS011;2530;47.990;7.866;2023-04-24T11:41:28;2.47;;;1.10;;
5022;SDS011;2530;47.990;7.866;2023-04-24T11:43:55;1.90;;;1.25;;
5022;SDS011;2530;47.990;7.866;2023-04-24T11:46:21;1.80;;;1.20;;
5022;SDS011;2530;47.990;7.866;2023-04-24T11:48:47;2.30;;;1.10;;
5022;SDS011;2530;47.990;7.866;2023-04-24T11:51:13;1.80;;;1.30;;
5022;SDS011;2530;47.990;7.866;2023-04-24T11:53:39;1.30;;;1.20;;
5022;SDS011;2530;47.990;7.866;2023-04-24T11:56:05;1.50;;;1.40;;
5022;SDS011;2530;47.990;7.866;2023-04-24T11:58:37;2.10;;;1.60;;
5022;SDS011;2530;47.990;7.866;2023-04-24T12:01:04;1.87;;;1.60;;
5022;SDS011;2530;47.990;7.866;2023-04-24T12:03:30;2.92;;;1.50;;
5022;SDS011;2530;47.990;7.866;2023-04-24T12:06:06;3.40;;;1.40;;
5022;SDS011;2530;47.990;7.866;2023-04-24T12:08:35;1.40;;;1.20;;
5022;SDS011;2530;47.990;7.866;2023-04-24T12:11:01;2.80;;;1.50;;
5022;SDS011;2530;47.990;7.866;2023-04-24T12:13:28;3.70;;;1.60;;
5022;SDS011;2530;47.990;7.866;2023-04-24T12:15:53;3.87;;;1.50;;
5022;SDS011;2530;47.990;7.866;2023-04-24T12:18:22;3.63;;;1.60;;
5022;SDS011;2530;47.990;7.866;2023-04-24T12:20:48;1.40;;;1.30;;
5022;SDS011;2530;47.990;7.866;2023-04-24T12:23:13;3.67;;;1.33;;
5022;SDS011;2530;47.990;7.866;2023-04-24T12:25:39;3.30;;;1.60;;
5022;SDS011;2530;47.990;7.866;2023-04-24T12:30:32;1.73;;;1.45;;
5022;SDS011;2530;47.990;7.866;2023-04-24T12:32:59;2.55;;;1.50;;
5022;SDS011;2530;47.990;7.866;2023-04-24T12:35:27;2.00;;;1.45;;
5022;SDS011;2530;47.990;7.866;2023-04-24T12:37:54;1.50;;;1.30;;
5022;SDS011;2530;47.990;7.866;2023-04-24T12:40:20;2.83;;;1.50;;
5022;SDS011;2530;47.990;7.866;2023-04-24T12:42:47;2.00;;;1.50;;
5022;SDS011;2530;47.990;7.866;2023-04-24T12:45:14;2.30;;;1.50;;
5022;SDS011;2530;47.990;7.866;2023-04-24T12:47:41;2.60;;;1.55;;
5022;SDS011;2530;47.990;7.866;2023-04-24T12:50:08;1.55;;;1.40;;
5022;SDS011;2530;47.990;7.866;2023-04-24T12:52:35;2.00;;;1.40;;
5022;SDS011;2530;47.990;7.866;2023-04-24T12:55:01;1.83;;;1.33;;
5022;SDS011;2530;47.990;7.866;2023-04-24T12:57:28;1.60;;;1.15;;
5022;SDS011;2530;47.990;7.866;2023-04-24T12:59:55;1.50;;;1.10;;
5022;SDS011;2530;47.990;7.866;2023-04-24T13:02:25;2.40;;;1.50;;
5022;SDS011;2530;47.990;7.866;2023-04-24T13:04:52;1.95;;;1.52;;
5022;SDS011;2530;47.990;7.866;2023-04-24T13:07:18;1.85;;;1.40;;
5022;SDS011;2530;47.990;7.866;2023-04-24T13:09:44;1.80;;;1.50;;
5022;SDS011;2530;47.990;7.866;2023-04-24T13:12:11;3.47;;;1.60;;
5022;SDS011;2530;47.990;7.866;2023-04-24T13:14:37;1.48;;;1.30;;
5022;SDS011;2530;47.990;7.866;2023-04-24T13:17:03;1.85;;;1.30;;
5022;SDS011;2530;47.990;7.866;2023-04-24T13:19:29;1.20;;;1.10;;
5022;SDS011;2530;47.990;7.866;2023-04-24T13:22:00;2.00;;;1.50;;
5022;SDS011;2530;47.990;7.866;2023-04-24T13:24:25;2.17;;;1.17;;
5022;SDS011;2530;47.990;7.866;2023-04-24T13:26:51;1.80;;;1.58;;
5022;SDS011;2530;47.990;7.866;2023-04-24T13:29:17;2.47;;;1.30;;
5022;SDS011;2530;47.990;7.866;2023-04-24T13:31:43;2.90;;;1.70;;
5022;SDS011;2530;47.990;7.866;2023-04-24T13:34:09;2.10;;;1.40;;
5022;SDS011;2530;47.990;7.866;2023-04-24T13:36:35;1.40;;;1.30;;
5022;SDS011;2530;47.990;7.866;2023-04-24T13:39:01;1.77;;;1.40;;
5022;SDS011;2530;47.990;7.866;2023-04-24T13:41:29;1.80;;;1.70;;
5022;SDS011;2530;47.990;7.866;2023-04-24T13:43:55;1.90;;;1.50;;
5022;SDS011;2530;47.990;7.866;2023-04-24T13:46:21;1.70;;;1.60;;
5022;SDS011;2530;47.990;7.866;2023-04-24T13:48:46;1.80;;;1.70;;
5022;SDS011;2530;47.990;7.866;2023-04-24T13:51:12;3.50;;;1.60;;
5022;SDS011;2530;47.990;7.866;2023-04-24T13:53:37;1.60;;;1.40;;
5022;SDS011;2530;47.990;7.866;2023-04-24T13:56:03;1.83;;;1.50;;
5022;SDS011;2530;47.990;7.866;2023-04-24T13:58:30;1.60;;;1.40;;
5022;SDS011;2530;47.990;7.866;2023-04-24T14:00:57;3.40;;;1.65;;
5022;SDS011;2530;47.990;7.866;2023-04-24T14:03:22;3.03;;;1.70;;
5022;SDS011;2530;47.990;7.866;2023-04-24T14:05:48;2.50;;;1.70;;
5022;SDS011;2530;47.990;7.866;2023-04-24T14:08:13;2.00;;;1.80;;
5022;SDS011;2530;47.990;7.866;2023-04-24T14:10:40;2.92;;;1.55;;
5022;SDS011;2530;47.990;7.866;2023-04-24T14:13:07;1.98;;;1.60;;
5022;SDS011;2530;47.990;7.866;2023-04-24T14:15:34;2.20;;;1.55;;
5022;SDS011;2530;47.990;7.866;2023-04-24T14:18:00;1.85;;;1.50;;
5022;SDS011;2530;47.990;7.866;2023-04-24T14:20:26;2.30;;;1.57;;
5022;SDS011;2530;47.990;7.866;2023-04-24T14:22:51;1.80;;;1.50;;
5022;SDS011;2530;47.990;7.866;2023-04-24T14:25:18;1.90;;;1.80;;
5022;SDS011;2530;47.990;7.866;2023-04-24T14:27:43;2.00;;;1.70;;
5022;SDS011;2530;47.990;7.866;2023-04-24T14:30:09;1.95;;;1.40;;
5022;SDS011;2530;47.990;7.866;2023-04-24T14:32:35;2.88;;;1.50;;
5022;SDS011;2530;47.990;7.866;2023-04-24T14:35:01;3.50;;;1.80;;
5022;SDS011;2530;47.990;7.866;2023-04-24T14:37:26;1.93;;;1.50;;
5022;SDS011;2530;47.990;7.866;2023-04-24T14:39:52;2.37;;;1.70;;
5022;SDS011;2530;47.990;7.866;2023-04-24T14:42:17;3.65;;;1.60;;
5022;SDS011;2530;47.990;7.866;2023-04-24T14:44:43;2.70;;;1.60;;
5022;SDS011;2530;47.990;7.866;2023-04-24T14:47:08;1.93;;;1.63;;
5022;SDS011;2530;47.990;7.866;2023-04-24T14:49:34;2.05;;;1.85;;
5022;SDS011;2530;47.990;7.866;2023-04-24T14:51:59;2.20;;;1.80;;
5022;SDS011;2530;47.990;7.866;2023-04-24T14:54:26;2.83;;;1.70;;
5022;SDS011;2530;47.990;7.866;2023-04-24T14:56:51;2.80;;;1.65;;
5022;SDS011;2530;47.990;7.866;2023-04-24T14:59:17;3.20;;;2.00;;
5022;SDS011;2530;47.990;7.866;2023-04-24T15:01:42;2.17;;;1.80;;
5022;SDS011;2530;47.990;7.866;2023-04-24T15:04:08;2.20;;;1.90;;
5022;SDS011;2530;47.990;7.866;2023-04-24T15:06:33;3.63;;;1.80;;
5022;SDS011;2530;47.990;7.866;2023-04-24T15:08:59;2.58;;;2.10;;
5022;SDS011;2530;47.990;7.866;2023-04-24T15:11:25;2.07;;;1.87;;
5022;SDS011;2530;47.990;7.866;2023-04-24T15:13:51;1.97;;;1.80;;
5022;SDS011;2530;47.990;7.866;2023-04-24T15:16:16;2.87;;;1.70;;